RYR9BC LGSA-EPPO
Flight info
| Callsign | RYR9BC |
|---|---|
| Flight time | N/A |
| Altitude | 38000 |
| Route | SOKR1K SOKRI DCT TALAS DCT LONTA UM749 UDVAR DCT PARAK DCT PATAK DCT REGLI DCT OSKEX Z159 NILPU NILP3M |
| Aircraft | B38M/M-SDE1FGHILORVWXY/HB1 |
Departure
| Time | N/A |
|---|---|
| Airport | Chania International Airport (LGSA) |
Arrival
| Time | 2026-05-04 21:37 |
|---|---|
| Airport | Poznań-Ławica Airport (EPPO) |
| Time | Latitude | Longitude | Altitude | Speed | Heading |
|---|---|---|---|---|---|
| 2026-05-04 20:19 | 44.82905 | 20.52179 | 38067 ft | 423 kts | 347° |
| 2026-05-04 20:20 | 44.88654 | 20.50380 | 38073 ft | 423 kts | 347° |
| 2026-05-04 20:20 | 44.94402 | 20.48576 | 38078 ft | 423 kts | 347° |
| 2026-05-04 20:21 | 45.00151 | 20.46770 | 38073 ft | 423 kts | 347° |
| 2026-05-04 20:21 | 45.08769 | 20.44054 | 38073 ft | 423 kts | 347° |
| 2026-05-04 20:22 | 45.14516 | 20.42239 | 38075 ft | 423 kts | 347° |
| 2026-05-04 20:22 | 45.20260 | 20.40420 | 38059 ft | 424 kts | 347° |
| 2026-05-04 20:23 | 45.26029 | 20.38590 | 38057 ft | 425 kts | 346° |
| 2026-05-04 20:23 | 45.31792 | 20.36758 | 38070 ft | 425 kts | 347° |
| 2026-05-04 20:24 | 45.37557 | 20.34921 | 38065 ft | 425 kts | 347° |
| 2026-05-04 20:24 | 45.43322 | 20.33081 | 38067 ft | 425 kts | 347° |
| 2026-05-04 20:25 | 45.49085 | 20.31237 | 38063 ft | 424 kts | 347° |
| 2026-05-04 20:25 | 45.54810 | 20.29402 | 38060 ft | 424 kts | 347° |
| 2026-05-04 20:26 | 45.60617 | 20.27537 | 38058 ft | 426 kts | 346° |
| 2026-05-04 20:26 | 45.66362 | 20.25687 | 38053 ft | 426 kts | 346° |
| 2026-05-04 20:27 | 45.72186 | 20.23808 | 38058 ft | 426 kts | 346° |
| 2026-05-04 20:27 | 45.77934 | 20.21950 | 38061 ft | 426 kts | 346° |
| 2026-05-04 20:28 | 45.83720 | 20.20075 | 38065 ft | 427 kts | 346° |
| 2026-05-04 20:28 | 45.89514 | 20.18195 | 38066 ft | 427 kts | 346° |
| 2026-05-04 20:29 | 45.95303 | 20.16312 | 38062 ft | 427 kts | 346° |
| 2026-05-04 20:29 | 46.01093 | 20.14425 | 38077 ft | 427 kts | 346° |
| 2026-05-04 20:30 | 46.06889 | 20.12532 | 38066 ft | 427 kts | 346° |
| 2026-05-04 20:30 | 46.12682 | 20.10636 | 38064 ft | 427 kts | 346° |
| 2026-05-04 20:31 | 46.18384 | 20.08305 | 38073 ft | 425 kts | 339° |
| 2026-05-04 20:31 | 46.23984 | 20.05480 | 38061 ft | 426 kts | 341° |
| 2026-05-04 20:32 | 46.29609 | 20.02720 | 38063 ft | 427 kts | 341° |
| 2026-05-04 20:32 | 46.35239 | 19.99963 | 38060 ft | 427 kts | 341° |
| 2026-05-04 20:33 | 46.40869 | 19.97202 | 38057 ft | 427 kts | 341° |
| 2026-05-04 20:33 | 46.46496 | 19.94436 | 38063 ft | 427 kts | 341° |
| 2026-05-04 20:34 | 46.52129 | 19.91661 | 38063 ft | 428 kts | 341° |
| 2026-05-04 20:34 | 46.57757 | 19.88882 | 38060 ft | 427 kts | 341° |
| 2026-05-04 20:35 | 46.63391 | 19.86094 | 38064 ft | 428 kts | 341° |
| 2026-05-04 20:35 | 46.69020 | 19.83303 | 38055 ft | 427 kts | 340° |
| 2026-05-04 20:36 | 46.74650 | 19.80505 | 38071 ft | 428 kts | 340° |
| 2026-05-04 20:36 | 46.80279 | 19.77701 | 38072 ft | 428 kts | 340° |
| 2026-05-04 20:37 | 46.85871 | 19.74909 | 38072 ft | 428 kts | 340° |
| 2026-05-04 20:37 | 46.91501 | 19.72093 | 38070 ft | 427 kts | 340° |
| 2026-05-04 20:38 | 46.97129 | 19.69271 | 38081 ft | 428 kts | 340° |
| 2026-05-04 20:38 | 47.02759 | 19.66442 | 38052 ft | 428 kts | 340° |
| 2026-05-04 20:39 | 47.08383 | 19.63609 | 38046 ft | 427 kts | 340° |
| 2026-05-04 20:39 | 47.14011 | 19.60768 | 38046 ft | 427 kts | 340° |
| 2026-05-04 20:40 | 47.19632 | 19.57925 | 38050 ft | 427 kts | 340° |
| 2026-05-04 20:40 | 47.25257 | 19.55072 | 38046 ft | 427 kts | 340° |
| 2026-05-04 20:41 | 47.30878 | 19.52216 | 38053 ft | 427 kts | 340° |
| 2026-05-04 20:41 | 47.36501 | 19.49352 | 38044 ft | 427 kts | 340° |
| 2026-05-04 20:42 | 47.42121 | 19.46482 | 38051 ft | 428 kts | 340° |
| 2026-05-04 20:42 | 47.47749 | 19.43604 | 38045 ft | 428 kts | 340° |
| 2026-05-04 20:43 | 47.53370 | 19.40721 | 38047 ft | 428 kts | 340° |
| 2026-05-04 20:43 | 47.58999 | 19.37828 | 38044 ft | 428 kts | 340° |
| 2026-05-04 20:44 | 47.64625 | 19.34929 | 38047 ft | 428 kts | 340° |
| 2026-05-04 20:44 | 47.70250 | 19.32025 | 38046 ft | 428 kts | 340° |
| 2026-05-04 20:45 | 47.75876 | 19.29114 | 38039 ft | 428 kts | 340° |
| 2026-05-04 20:45 | 47.81504 | 19.26194 | 38043 ft | 428 kts | 340° |
| 2026-05-04 20:46 | 47.87093 | 19.23289 | 38041 ft | 428 kts | 340° |
| 2026-05-04 20:46 | 47.92720 | 19.20357 | 38041 ft | 429 kts | 339° |
| 2026-05-04 20:47 | 47.98353 | 19.17417 | 38041 ft | 429 kts | 339° |
| 2026-05-04 20:47 | 48.03985 | 19.14470 | 38040 ft | 429 kts | 339° |
| 2026-05-04 20:48 | 48.09588 | 19.11424 | 38043 ft | 429 kts | 338° |
| 2026-05-04 20:48 | 48.14233 | 19.08835 | 38049 ft | 428 kts | 338° |
| 2026-05-04 20:49 | 48.19817 | 19.05727 | 38047 ft | 428 kts | 338° |
| 2026-05-04 20:49 | 48.25404 | 19.02611 | 38044 ft | 428 kts | 338° |
| 2026-05-04 20:50 | 48.30986 | 18.99490 | 38045 ft | 428 kts | 338° |
| 2026-05-04 20:50 | 48.36573 | 18.96359 | 38043 ft | 428 kts | 338° |
| 2026-05-04 20:51 | 48.42159 | 18.93222 | 38045 ft | 429 kts | 338° |
| 2026-05-04 20:51 | 48.47752 | 18.90073 | 38046 ft | 429 kts | 338° |
| 2026-05-04 20:52 | 48.53338 | 18.86920 | 38051 ft | 428 kts | 338° |
| 2026-05-04 20:52 | 48.58913 | 18.83766 | 38042 ft | 428 kts | 338° |
| 2026-05-04 20:53 | 48.64490 | 18.80604 | 38052 ft | 428 kts | 338° |
| 2026-05-04 20:53 | 48.70070 | 18.77432 | 38055 ft | 429 kts | 338° |
| 2026-05-04 20:54 | 48.75653 | 18.74252 | 38043 ft | 429 kts | 338° |
| 2026-05-04 20:54 | 48.81238 | 18.71063 | 38046 ft | 429 kts | 338° |
| 2026-05-04 20:55 | 48.86820 | 18.67867 | 38044 ft | 429 kts | 338° |
| 2026-05-04 20:55 | 48.92398 | 18.64666 | 38042 ft | 429 kts | 337° |
| 2026-05-04 20:56 | 48.97984 | 18.61453 | 38044 ft | 429 kts | 337° |
| 2026-05-04 20:56 | 49.03568 | 18.58234 | 38033 ft | 429 kts | 337° |
| 2026-05-04 20:57 | 49.09155 | 18.55005 | 38031 ft | 429 kts | 337° |
| 2026-05-04 20:57 | 49.14734 | 18.51773 | 38027 ft | 429 kts | 337° |
| 2026-05-04 20:58 | 49.20323 | 18.48527 | 38024 ft | 430 kts | 337° |
| 2026-05-04 20:58 | 49.25879 | 18.45293 | 38016 ft | 430 kts | 337° |
| 2026-05-04 20:59 | 49.31473 | 18.42028 | 38032 ft | 431 kts | 337° |
| 2026-05-04 20:59 | 49.37073 | 18.38753 | 38015 ft | 430 kts | 337° |
| 2026-05-04 21:00 | 49.42664 | 18.35474 | 38018 ft | 430 kts | 337° |
| 2026-05-04 21:00 | 49.48258 | 18.32185 | 37995 ft | 430 kts | 337° |
| 2026-05-04 21:01 | 49.53854 | 18.28888 | 37996 ft | 431 kts | 337° |
| 2026-05-04 21:01 | 49.59448 | 18.25583 | 37997 ft | 431 kts | 337° |
| 2026-05-04 21:02 | 49.65044 | 18.22268 | 37994 ft | 431 kts | 336° |
| 2026-05-04 21:02 | 49.70638 | 18.18948 | 37995 ft | 431 kts | 336° |
| 2026-05-04 21:03 | 49.76230 | 18.15620 | 37992 ft | 431 kts | 336° |
| 2026-05-04 21:03 | 49.81823 | 18.12283 | 37992 ft | 431 kts | 336° |
| 2026-05-04 21:04 | 49.87413 | 18.08941 | 37991 ft | 431 kts | 336° |
| 2026-05-04 21:04 | 49.93002 | 18.05591 | 37987 ft | 431 kts | 336° |
| 2026-05-04 21:05 | 49.98597 | 18.02230 | 37983 ft | 431 kts | 336° |
| 2026-05-04 21:05 | 50.04209 | 17.99134 | 37970 ft | 433 kts | 345° |
| 2026-05-04 21:06 | 50.10088 | 17.97064 | 37971 ft | 433 kts | 345° |
| 2026-05-04 21:06 | 50.13010 | 17.96021 | 37819 ft | 427 kts | 345° |
| 2026-05-04 21:06 | 50.15898 | 17.94990 | 37259 ft | 424 kts | 345° |
| 2026-05-04 21:07 | 50.18768 | 17.93962 | 36720 ft | 421 kts | 345° |
| 2026-05-04 21:07 | 50.21610 | 17.92945 | 36229 ft | 418 kts | 345° |
| 2026-05-04 21:07 | 50.24428 | 17.91934 | 35750 ft | 414 kts | 345° |
| 2026-05-04 21:07 | 50.27230 | 17.90929 | 35259 ft | 411 kts | 345° |
| 2026-05-04 21:08 | 50.30010 | 17.89929 | 34773 ft | 409 kts | 345° |
| 2026-05-04 21:08 | 50.32772 | 17.88935 | 34287 ft | 406 kts | 345° |
| 2026-05-04 21:08 | 50.35521 | 17.87945 | 33785 ft | 404 kts | 345° |
| 2026-05-04 21:08 | 50.38259 | 17.86957 | 33249 ft | 402 kts | 345° |
| 2026-05-04 21:09 | 50.40974 | 17.85977 | 32766 ft | 399 kts | 345° |
| 2026-05-04 21:09 | 50.43671 | 17.85001 | 32325 ft | 396 kts | 344° |
| 2026-05-04 21:09 | 50.46343 | 17.84033 | 31864 ft | 393 kts | 344° |
| 2026-05-04 21:09 | 50.48999 | 17.83071 | 31407 ft | 390 kts | 344° |
| 2026-05-04 21:10 | 50.51637 | 17.82114 | 30972 ft | 388 kts | 344° |
| 2026-05-04 21:10 | 50.54256 | 17.81163 | 30526 ft | 385 kts | 344° |
| 2026-05-04 21:10 | 50.56858 | 17.80216 | 30100 ft | 383 kts | 344° |
| 2026-05-04 21:10 | 50.59445 | 17.79274 | 29620 ft | 381 kts | 344° |
| 2026-05-04 21:11 | 50.62019 | 17.78336 | 29166 ft | 377 kts | 344° |
| 2026-05-04 21:11 | 50.64562 | 17.77408 | 28757 ft | 374 kts | 344° |
| 2026-05-04 21:11 | 50.67085 | 17.76487 | 28347 ft | 370 kts | 344° |
| 2026-05-04 21:11 | 50.69578 | 17.75575 | 27959 ft | 367 kts | 343° |
| 2026-05-04 21:12 | 50.72060 | 17.74666 | 27565 ft | 364 kts | 343° |
| 2026-05-04 21:12 | 50.74514 | 17.73767 | 27172 ft | 361 kts | 343° |
| 2026-05-04 21:12 | 50.76955 | 17.72871 | 26790 ft | 359 kts | 343° |
| 2026-05-04 21:12 | 50.79380 | 17.71980 | 26411 ft | 356 kts | 343° |
| 2026-05-04 21:13 | 50.81786 | 17.71095 | 26036 ft | 354 kts | 343° |
| 2026-05-04 21:13 | 50.84175 | 17.70216 | 25665 ft | 352 kts | 343° |
| 2026-05-04 21:13 | 50.86556 | 17.69339 | 25292 ft | 350 kts | 343° |
| 2026-05-04 21:13 | 50.88918 | 17.68468 | 24938 ft | 348 kts | 343° |
| 2026-05-04 21:14 | 50.91269 | 17.67600 | 24588 ft | 346 kts | 343° |
| 2026-05-04 21:14 | 50.93607 | 17.66736 | 24230 ft | 345 kts | 343° |
| 2026-05-04 21:14 | 50.95938 | 17.65873 | 23873 ft | 343 kts | 343° |
| 2026-05-04 21:14 | 50.98261 | 17.65012 | 23512 ft | 342 kts | 343° |
| 2026-05-04 21:15 | 51.00577 | 17.64154 | 23095 ft | 341 kts | 343° |
| 2026-05-04 21:15 | 51.02876 | 17.63301 | 22722 ft | 338 kts | 343° |
| 2026-05-04 21:15 | 51.05161 | 17.62452 | 22374 ft | 335 kts | 343° |
| 2026-05-04 21:15 | 51.07421 | 17.61611 | 22031 ft | 332 kts | 343° |
| 2026-05-04 21:16 | 51.09666 | 17.60776 | 21693 ft | 331 kts | 343° |
| 2026-05-04 21:16 | 51.11922 | 17.59935 | 21347 ft | 335 kts | 343° |
| 2026-05-04 21:16 | 51.14206 | 17.59083 | 21005 ft | 339 kts | 343° |
| 2026-05-04 21:16 | 51.16504 | 17.58225 | 20659 ft | 339 kts | 343° |
| 2026-05-04 21:17 | 51.18770 | 17.57378 | 20316 ft | 339 kts | 343° |
| 2026-05-04 21:17 | 51.21058 | 17.56522 | 19980 ft | 337 kts | 343° |
| 2026-05-04 21:17 | 51.23333 | 17.55670 | 19629 ft | 335 kts | 343° |
| 2026-05-04 21:17 | 51.25596 | 17.54822 | 19282 ft | 333 kts | 343° |
| 2026-05-04 21:18 | 51.27849 | 17.53976 | 18941 ft | 332 kts | 343° |
| 2026-05-04 21:18 | 51.30092 | 17.53134 | 18606 ft | 330 kts | 343° |
| 2026-05-04 21:18 | 51.32323 | 17.52294 | 18267 ft | 329 kts | 343° |
| 2026-05-04 21:18 | 51.34546 | 17.51458 | 17887 ft | 328 kts | 343° |
| 2026-05-04 21:19 | 51.36759 | 17.50624 | 17529 ft | 325 kts | 343° |
| 2026-05-04 21:19 | 51.38953 | 17.49797 | 17183 ft | 323 kts | 343° |
| 2026-05-04 21:19 | 51.41130 | 17.48974 | 16868 ft | 320 kts | 342° |
| 2026-05-04 21:19 | 51.43290 | 17.48158 | 16527 ft | 318 kts | 342° |
| 2026-05-04 21:20 | 51.45433 | 17.47347 | 16213 ft | 315 kts | 342° |
| 2026-05-04 21:20 | 51.47565 | 17.46540 | 15883 ft | 313 kts | 342° |
| 2026-05-04 21:20 | 51.49678 | 17.45739 | 15562 ft | 311 kts | 342° |
| 2026-05-04 21:20 | 51.51780 | 17.44942 | 15236 ft | 309 kts | 342° |
| 2026-05-04 21:21 | 51.53865 | 17.44150 | 14916 ft | 307 kts | 342° |
| 2026-05-04 21:21 | 51.55942 | 17.43361 | 14603 ft | 305 kts | 342° |
| 2026-05-04 21:21 | 51.58002 | 17.42577 | 14284 ft | 304 kts | 342° |
| 2026-05-04 21:21 | 51.60053 | 17.41796 | 13968 ft | 302 kts | 342° |
| 2026-05-04 21:22 | 51.62096 | 17.41018 | 13646 ft | 301 kts | 342° |
| 2026-05-04 21:22 | 51.64126 | 17.40244 | 13300 ft | 299 kts | 342° |
| 2026-05-04 21:22 | 51.66147 | 17.39472 | 12969 ft | 297 kts | 342° |
| 2026-05-04 21:22 | 51.68151 | 17.38706 | 12657 ft | 295 kts | 342° |
| 2026-05-04 21:23 | 51.70140 | 17.37945 | 12340 ft | 293 kts | 342° |
| 2026-05-04 21:23 | 51.72113 | 17.37190 | 12050 ft | 290 kts | 342° |
| 2026-05-04 21:23 | 51.74069 | 17.36440 | 11744 ft | 288 kts | 342° |
| 2026-05-04 21:23 | 51.75989 | 17.35704 | 11446 ft | 286 kts | 342° |
| 2026-05-04 21:24 | 51.77920 | 17.34962 | 11139 ft | 284 kts | 342° |
| 2026-05-04 21:24 | 51.79839 | 17.34225 | 10846 ft | 283 kts | 342° |
| 2026-05-04 21:24 | 51.81748 | 17.33490 | 10551 ft | 281 kts | 342° |
| 2026-05-04 21:24 | 51.83645 | 17.32761 | 10253 ft | 280 kts | 342° |
| 2026-05-04 21:25 | 51.85527 | 17.32036 | 10029 ft | 275 kts | 342° |
| 2026-05-04 21:25 | 51.87354 | 17.31331 | 9975 ft | 264 kts | 342° |
| 2026-05-04 21:25 | 51.89094 | 17.30660 | 9973 ft | 252 kts | 342° |
| 2026-05-04 21:25 | 51.90785 | 17.30007 | 9968 ft | 248 kts | 342° |
| 2026-05-04 21:26 | 51.92468 | 17.29357 | 9696 ft | 251 kts | 342° |
| 2026-05-04 21:26 | 51.94194 | 17.28689 | 9158 ft | 260 kts | 343° |
| 2026-05-04 21:26 | 51.95993 | 17.27993 | 8517 ft | 272 kts | 343° |
| 2026-05-04 21:26 | 51.97870 | 17.27266 | 7989 ft | 281 kts | 343° |
| 2026-05-04 21:27 | 51.99770 | 17.26529 | 7669 ft | 280 kts | 343° |
| 2026-05-04 21:27 | 52.01651 | 17.25800 | 7421 ft | 276 kts | 343° |
| 2026-05-04 21:27 | 52.03505 | 17.25079 | 7159 ft | 273 kts | 343° |
| 2026-05-04 21:27 | 52.05344 | 17.24364 | 6882 ft | 271 kts | 343° |
| 2026-05-04 21:28 | 52.07171 | 17.23654 | 6595 ft | 269 kts | 343° |
| 2026-05-04 21:28 | 52.08991 | 17.22945 | 6301 ft | 268 kts | 343° |
| 2026-05-04 21:28 | 52.10800 | 17.22239 | 5993 ft | 267 kts | 343° |
| 2026-05-04 21:28 | 52.12601 | 17.21538 | 5698 ft | 265 kts | 344° |
| 2026-05-04 21:29 | 52.14391 | 17.20839 | 5400 ft | 264 kts | 344° |
| 2026-05-04 21:29 | 52.16170 | 17.20144 | 5125 ft | 262 kts | 344° |
| 2026-05-04 21:29 | 52.17940 | 17.19452 | 4840 ft | 261 kts | 344° |
| 2026-05-04 21:29 | 52.19698 | 17.18763 | 4553 ft | 259 kts | 344° |
| 2026-05-04 21:30 | 52.21444 | 17.18080 | 4301 ft | 256 kts | 345° |
| 2026-05-04 21:30 | 52.23150 | 17.17411 | 4161 ft | 248 kts | 345° |
| 2026-05-04 21:30 | 52.24799 | 17.16764 | 4037 ft | 240 kts | 345° |
| 2026-05-04 21:30 | 52.26391 | 17.16138 | 3909 ft | 232 kts | 345° |
| 2026-05-04 21:31 | 52.29418 | 17.14949 | 3644 ft | 216 kts | 345° |
| 2026-05-04 21:31 | 52.30876 | 17.14376 | 3530 ft | 215 kts | 345° |
| 2026-05-04 21:31 | 52.32294 | 17.13817 | 3461 ft | 205 kts | 345° |
| 2026-05-04 21:32 | 52.33650 | 17.13283 | 3315 ft | 202 kts | 345° |
| 2026-05-04 21:32 | 52.35031 | 17.12725 | 3085 ft | 200 kts | 341° |
| 2026-05-04 21:32 | 52.36099 | 17.11531 | 2983 ft | 183 kts | 307° |
| 2026-05-04 21:32 | 52.36750 | 17.09806 | 3023 ft | 174 kts | 295° |
| 2026-05-04 21:33 | 52.37187 | 17.07960 | 3028 ft | 174 kts | 288° |
| 2026-05-04 21:33 | 52.37556 | 17.06100 | 2944 ft | 175 kts | 287° |
| 2026-05-04 21:33 | 52.37926 | 17.04204 | 2750 ft | 174 kts | 288° |
| 2026-05-04 21:33 | 52.38293 | 17.02317 | 2531 ft | 174 kts | 288° |
| 2026-05-04 21:34 | 52.38659 | 17.00428 | 2322 ft | 174 kts | 289° |
| 2026-05-04 21:34 | 52.39025 | 16.98536 | 2105 ft | 174 kts | 289° |
| 2026-05-04 21:34 | 52.39390 | 16.96648 | 1884 ft | 174 kts | 289° |
| 2026-05-04 21:34 | 52.39754 | 16.94764 | 1656 ft | 173 kts | 290° |
| 2026-05-04 21:35 | 52.40099 | 16.92981 | 1473 ft | 158 kts | 289° |
| 2026-05-04 21:35 | 52.40423 | 16.91306 | 1247 ft | 152 kts | 289° |
| 2026-05-04 21:35 | 52.40738 | 16.89679 | 1034 ft | 149 kts | 289° |
| 2026-05-04 21:35 | 52.41052 | 16.88056 | 826 ft | 148 kts | 289° |
| 2026-05-04 21:36 | 52.41367 | 16.86456 | 624 ft | 149 kts | 289° |
| 2026-05-04 21:36 | 52.41677 | 16.84853 | 431 ft | 147 kts | 289° |
| 2026-05-04 21:36 | 52.41979 | 16.83286 | 291 ft | 133 kts | 289° |
| 2026-05-04 21:36 | 52.42217 | 16.82050 | 294 ft | 95 kts | 286° |
| 2026-05-04 21:37 | 52.42298 | 16.81421 | 293 ft | 31 kts | 264° |
| 2026-05-04 21:37 | 52.42278 | 16.81261 | 291 ft | 16 kts | 257° |
| 2026-05-04 21:37 | 52.42264 | 16.81161 | 290 ft | 9 kts | 257° |
| 2026-05-04 21:37 | 52.42227 | 16.81135 | 293 ft | 7 kts | 140° |
| 2026-05-04 21:38 | 52.42202 | 16.81226 | 291 ft | 12 kts | 107° |
| 2026-05-04 21:38 | 52.42171 | 16.81395 | 295 ft | 19 kts | 107° |
| 2026-05-04 21:38 | 52.42129 | 16.81609 | 293 ft | 20 kts | 108° |
| 2026-05-04 21:38 | 52.42088 | 16.81817 | 291 ft | 19 kts | 108° |
| 2026-05-04 21:39 | 52.42046 | 16.82033 | 291 ft | 21 kts | 108° |
| 2026-05-04 21:39 | 52.42005 | 16.82243 | 292 ft | 20 kts | 107° |
| 2026-05-04 21:39 | 52.41968 | 16.82436 | 294 ft | 17 kts | 107° |
| 2026-05-04 21:39 | 52.41941 | 16.82576 | 293 ft | 11 kts | 107° |
| 2026-05-04 21:40 | 52.41916 | 16.82711 | 291 ft | 14 kts | 107° |
| 2026-05-04 21:40 | 52.41888 | 16.82859 | 292 ft | 12 kts | 107° |
| 2026-05-04 21:40 | 52.41846 | 16.82920 | 293 ft | 9 kts | 190° |
| 2026-05-04 21:40 | 52.41777 | 16.82884 | 292 ft | 12 kts | 198° |
| 2026-05-04 21:41 | 52.41706 | 16.82846 | 291 ft | 9 kts | 198° |
| 2026-05-04 21:41 | 52.41664 | 16.82893 | 291 ft | 9 kts | 110° |
| 2026-05-04 21:41 | 52.41623 | 16.82931 | 291 ft | 8 kts | 203° |
| 2026-05-04 21:41 | 52.41595 | 16.82915 | 291 ft | 2 kts | 192° |
| 2026-05-04 21:42 | 52.41584 | 16.82911 | 291 ft | 0 kts | 193° |